Time;durP1;ratioP1;P1;durP2;ratioP2;P2;SDS_P1;SDS_P2;PMS_P1;PMS_P2;Temp;Humidity;BMP_temperature;BMP_pressure;BME280_temperature;BME280_humidity;BME280_pressure;Samples;Min_cycle;Max_cycle;Signal;HPM_P1;HPM_P2
2021/10/24 00:00:06;;;;;;;7.03;1.67;;;12.20;51.00;;;;;;20868739;28;81919;-71
2021/10/24 00:10:08;;;;;;;3.33;1.17;;;12.10;51.40;;;;;;20819226;27;81967;-71
2021/10/24 00:20:13;;;;;;;5.03;1.40;;;12.10;51.50;;;;;;20808907;28;81753;-70
2021/10/24 00:30:16;;;;;;;4.93;1.30;;;11.90;52.00;;;;;;20807958;28;80805;-70
2021/10/24 00:40:18;;;;;;;6.45;1.38;;;11.70;52.30;;;;;;20809632;27;81940;-70
2021/10/24 00:50:24;;;;;;;6.10;1.70;;;11.60;52.50;;;;;;20808175;28;81911;-70
2021/10/24 01:00:28;;;;;;;6.15;1.50;;;11.50;52.80;;;;;;20807376;28;82409;-71
2021/10/24 01:10:36;;;;;;;5.78;1.30;;;11.40;53.10;;;;;;20801867;28;81797;-70
2021/10/24 01:20:40;;;;;;;8.02;1.40;;;11.40;53.40;;;;;;20801184;28;80023;-72
2021/10/24 01:30:45;;;;;;;5.60;1.48;;;11.40;53.50;;;;;;20798255;28;80298;-71
2021/10/24 01:40:54;;;;;;;3.80;1.70;;;11.40;53.80;;;;;;20798796;28;82187;-72
2021/10/24 01:50:59;;;;;;;6.70;1.80;;;11.30;54.20;;;;;;20798848;28;80489;-72
2021/10/24 02:01:06;;;;;;;5.38;1.70;;;11.00;54.70;;;;;;20792593;28;80174;-70
2021/10/24 02:11:12;;;;;;;6.05;2.13;;;10.80;54.90;;;;;;20795353;28;81340;-71
2021/10/24 02:21:19;;;;;;;8.13;1.90;;;10.70;55.10;;;;;;20799702;28;81097;-69
2021/10/24 02:31:30;;;;;;;8.55;1.77;;;10.50;55.40;;;;;;20800730;28;80963;-70
2021/10/24 02:41:39;;;;;;;4.88;1.92;;;10.40;55.80;;;;;;20793515;28;80534;-71
2021/10/24 02:51:49;;;;;;;5.38;1.70;;;10.30;56.10;;;;;;20795546;28;81918;-71
2021/10/24 03:01:56;;;;;;;2.80;1.45;;;10.10;56.30;;;;;;20790336;28;81908;-71
2021/10/24 03:12:03;;;;;;;3.83;1.20;;;9.90;56.90;;;;;;20795706;28;81823;-71
2021/10/24 03:22:10;;;;;;;4.85;1.45;;;9.70;57.40;;;;;;20798252;28;80866;-71
2021/10/24 03:32:16;;;;;;;6.25;1.20;;;9.40;57.70;;;;;;20822191;28;79910;-71
2021/10/24 03:42:20;;;;;;;6.18;1.50;;;9.40;57.90;;;;;;20850343;27;81658;-70
2021/10/24 03:52:26;;;;;;;2.05;1.00;;;9.40;57.70;;;;;;20796284;28;80735;-71
2021/10/24 04:02:30;;;;;;;3.25;1.20;;;9.20;58.00;;;;;;20796467;28;81994;-72
2021/10/24 04:12:36;;;;;;;3.60;1.50;;;9.20;58.20;;;;;;20796616;28;81936;-72
2021/10/24 04:22:39;;;;;;;;;;;9.00;58.60;;;;;;20796752;28;82191;-72
2021/10/24 04:32:46;;;;;;;3.90;1.05;;;8.90;58.90;;;;;;20816576;28;80136;-72
2021/10/24 04:42:51;;;;;;;3.55;1.65;;;8.80;59.20;;;;;;20820887;28;80037;-72
2021/10/24 04:53:08;;;;;;;3.30;1.40;;;8.70;59.60;;;;;;20808836;28;80934;-72
2021/10/24 05:03:13;;;;;;;3.17;1.27;;;8.80;59.70;;;;;;20807947;28;82226;-71
2021/10/24 05:13:18;;;;;;;3.22;1.45;;;8.70;59.80;;;;;;20807351;28;80818;-71
2021/10/24 05:23:22;;;;;;;3.00;1.42;;;8.60;60.00;;;;;;20805530;28;81811;-70
2021/10/24 05:33:27;;;;;;;5.88;1.67;;;8.50;60.40;;;;;;20804555;28;80798;-71
2021/10/24 05:43:30;;;;;;;7.28;2.00;;;8.40;60.60;;;;;;20805547;28;80723;-71
2021/10/24 05:53:35;;;;;;;3.20;1.15;;;8.40;60.70;;;;;;20803952;28;81284;-72
2021/10/24 06:03:44;;;;;;;3.67;2.00;;;8.40;60.60;;;;;;20836086;27;80746;-71
2021/10/24 06:13:48;;;;;;;3.25;1.73;;;8.30;60.90;;;;;;20887857;28;82284;-70
2021/10/24 06:23:52;;;;;;;5.50;1.52;;;8.30;60.90;;;;;;20887312;27;82233;-71
2021/10/24 06:33:55;;;;;;;6.10;1.88;;;8.10;61.30;;;;;;20853400;27;81486;-71
2021/10/24 06:43:58;;;;;;;5.87;1.37;;;8.10;61.20;;;;;;20803341;28;81169;-70
2021/10/24 06:54:02;;;;;;;2.85;1.30;;;8.00;61.40;;;;;;20834459;27;80902;-70
2021/10/24 07:04:10;;;;;;;5.32;1.35;;;8.10;61.30;;;;;;20838401;28;81955;-70
2021/10/24 07:14:13;;;;;;;8.20;1.98;;;8.30;60.90;;;;;;20884266;28;80665;-70
2021/10/24 07:24:17;;;;;;;4.73;1.53;;;8.60;60.20;;;;;;20884200;27;81898;-63
2021/10/24 07:34:20;;;;;;;7.85;2.50;;;8.90;59.50;;;;;;20884903;28;82103;-67
2021/10/24 07:44:24;;;;;;;5.13;2.08;;;9.30;58.80;;;;;;20882704;27;81922;-67
2021/10/24 07:54:27;;;;;;;6.67;2.37;;;9.50;58.00;;;;;;20881915;27;81815;-67
2021/10/24 08:04:35;;;;;;;4.10;1.98;;;10.00;56.70;;;;;;20878401;27;80297;-71
2021/10/24 08:14:38;;;;;;;8.07;2.10;;;10.60;55.00;;;;;;20882481;27;80134;-69
2021/10/24 08:24:40;;;;;;;6.90;2.13;;;11.10;53.60;;;;;;20893717;27;81620;-68
2021/10/24 08:34:44;;;;;;;7.65;2.30;;;11.80;52.10;;;;;;20879025;27;80501;-69
2021/10/24 08:44:48;;;;;;;6.63;2.80;;;12.10;51.20;;;;;;20887039;28;81962;-70
2021/10/24 08:54:53;;;;;;;7.93;2.03;;;12.50;50.40;;;;;;20819365;27;80815;-70
2021/10/24 09:05:01;;;;;;;2.95;2.00;;;13.00;49.50;;;;;;20803824;28;81175;-71
2021/10/24 09:15:05;;;;;;;4.22;2.10;;;13.40;47.80;;;;;;20807575;28;80271;-70
2021/10/24 09:25:19;;;;;;;7.05;2.20;;;14.00;46.50;;;;;;20799925;28;81708;-71
2021/10/24 09:35:32;;;;;;;5.60;2.53;;;14.60;44.70;;;;;;20804610;28;80098;-71
2021/10/24 09:45:36;;;;;;;6.60;2.50;;;15.40;43.30;;;;;;20808789;28;81044;-70
2021/10/24 09:55:44;;;;;;;6.95;2.75;;;17.00;39.80;;;;;;20806954;28;80755;-69
2021/10/24 10:05:47;;;;;;;6.30;2.53;;;22.20;31.40;;;;;;20806221;28;80770;-72
2021/10/24 10:15:51;;;;;;;5.93;1.98;;;25.50;26.90;;;;;;20806468;28;81819;-70
2021/10/24 10:25:54;;;;;;;9.23;2.70;;;28.00;24.20;;;;;;20803534;28;80775;-71
2021/10/24 10:35:59;;;;;;;7.85;3.20;;;30.90;21.70;;;;;;20803255;28;80852;-70
2021/10/24 10:46:05;;;;;;;5.60;2.60;;;33.30;19.50;;;;;;20802464;28;80768;-71
2021/10/24 10:56:21;;;;;;;5.18;2.08;;;35.00;17.90;;;;;;20800634;28;80549;-71
2021/10/24 11:06:27;;;;;;;7.70;1.63;;;37.40;16.40;;;;;;20801754;28;80860;-70
2021/10/24 11:16:35;;;;;;;6.55;1.85;;;38.50;15.70;;;;;;20802198;28;79836;-70
2021/10/24 11:26:38;;;;;;;6.28;2.00;;;40.40;14.50;;;;;;20802664;28;81855;-71
2021/10/24 11:36:45;;;;;;;4.75;1.42;;;41.90;13.60;;;;;;20799759;28;79990;-70
2021/10/24 11:46:51;;;;;;;5.07;2.20;;;35.90;17.20;;;;;;20799118;28;80690;-71
2021/10/24 11:57:27;;;;;;;6.50;1.60;;;35.20;18.00;;;;;;20806364;28;81099;-70
2021/10/24 12:07:27;;;;;;;5.30;2.00;;;33.90;18.80;;;;;;20814222;28;80848;-71
2021/10/24 12:17:30;;;;;;;5.45;2.13;;;37.70;16.20;;;;;;20813613;28;79967;-71
2021/10/24 12:27:35;;;;;;;4.97;2.28;;;38.20;16.00;;;;;;20814318;28;79840;-67
2021/10/24 12:37:40;;;;;;;6.45;2.30;;;34.40;18.40;;;;;;20812622;28;81242;-70
2021/10/24 12:47:54;;;;;;;5.15;1.80;;;36.20;17.20;;;;;;20811627;28;81858;-71
2021/10/24 12:58:00;;;;;;;2.78;1.63;;;32.30;19.90;;;;;;20810532;28;80734;-72
2021/10/24 13:08:02;;;;;;;6.70;2.35;;;32.70;19.90;;;;;;20809693;28;81793;-72
2021/10/24 13:18:04;;;;;;;8.15;1.73;;;37.40;16.10;;;;;;20809317;28;81811;-71
2021/10/24 13:28:06;;;;;;;5.75;1.60;;;34.70;17.60;;;;;;20809024;28;80650;-74
2021/10/24 13:38:09;;;;;;;2.15;1.40;;;32.20;19.30;;;;;;20810242;28;81619;-73
2021/10/24 13:48:12;;;;;;;5.45;1.40;;;32.90;18.60;;;;;;20807862;28;81890;-72
2021/10/24 13:58:14;;;;;;;1.85;0.90;;;35.80;16.90;;;;;;20807347;28;80749;-70
2021/10/24 14:08:16;;;;;;;2.15;1.15;;;36.80;15.30;;;;;;20804826;28;81800;-71
2021/10/24 14:18:19;;;;;;;2.80;1.23;;;33.20;18.00;;;;;;20803300;28;81858;-69
2021/10/24 14:28:21;;;;;;;1.88;0.95;;;32.10;18.00;;;;;;20804742;28;82009;-72
2021/10/24 14:38:24;;;;;;;2.25;0.90;;;35.90;15.30;;;;;;20804155;28;81727;-70
2021/10/24 14:48:26;;;;;;;2.28;0.90;;;37.70;13.80;;;;;;20802960;28;80764;-71
2021/10/24 14:58:28;;;;;;;4.30;0.95;;;36.00;14.90;;;;;;20802678;28;80821;-72
2021/10/24 15:08:30;;;;;;;2.08;0.70;;;34.00;16.20;;;;;;20802243;28;81981;-68
2021/10/24 15:28:54;;;;;;;3.25;1.00;;;28.60;20.40;;;;;;20799944;28;80749;-70
2021/10/24 15:38:58;;;;;;;2.72;1.17;;;26.10;22.70;;;;;;20798340;28;80860;-71
2021/10/24 15:49:00;;;;;;;3.80;0.65;;;25.00;24.10;;;;;;20799646;28;81872;-71
2021/10/24 15:59:02;;;;;;;2.00;0.80;;;24.10;25.20;;;;;;20798239;28;80562;-72
2021/10/24 16:09:06;;;;;;;1.55;0.57;;;23.30;26.10;;;;;;20816223;28;82144;-74
2021/10/24 16:19:08;;;;;;;2.83;0.50;;;22.70;25.70;;;;;;20800497;28;80730;-70
2021/10/24 16:29:10;;;;;;;2.92;0.93;;;22.30;25.50;;;;;;20870503;28;80961;-72
2021/10/24 16:39:12;;;;;;;;;;;21.90;25.60;;;;;;20883561;27;81830;-70
2021/10/24 16:49:14;;;;;;;3.80;1.55;;;21.50;26.30;;;;;;20912536;27;82253;-70
2021/10/24 16:59:16;;;;;;;3.85;1.40;;;21.10;27.60;;;;;;20884454;27;80183;-71
2021/10/24 17:09:21;;;;;;;6.05;1.27;;;20.80;28.80;;;;;;20884446;27;81864;-71
2021/10/24 17:19:25;;;;;;;5.15;2.50;;;20.40;30.00;;;;;;20886988;27;80317;-71
2021/10/24 17:29:27;;;;;;;6.27;2.00;;;20.10;31.20;;;;;;20887351;28;82007;-72
2021/10/24 17:39:29;;;;;;;5.80;2.93;;;19.60;32.50;;;;;;20883291;28;80918;-69
2021/10/24 17:49:30;;;;;;;8.90;1.87;;;19.30;33.60;;;;;;20875805;27;81705;-69
2021/10/24 17:59:32;;;;;;;9.40;2.50;;;18.90;34.20;;;;;;20876738;28;80839;-71
2021/10/24 18:09:34;;;;;;;12.47;2.87;;;18.60;34.20;;;;;;20884690;28;81154;-70
2021/10/24 18:19:40;;;;;;;7.10;2.25;;;18.30;34.90;;;;;;20880855;28;81340;-70
2021/10/24 18:29:43;;;;;;;11.70;3.33;;;18.10;35.40;;;;;;20873359;28;81525;-69
2021/10/24 18:39:46;;;;;;;15.90;3.63;;;17.80;35.50;;;;;;20864716;28;81123;-71
2021/10/24 18:49:48;;;;;;;9.70;3.58;;;17.40;36.10;;;;;;20870141;27;80841;-72
2021/10/24 18:59:50;;;;;;;10.07;3.67;;;17.20;36.60;;;;;;20870657;28;80727;-71
2021/10/24 19:09:52;;;;;;;9.88;3.78;;;16.90;37.30;;;;;;20872309;27;81663;-71
2021/10/24 19:19:53;;;;;;;15.93;4.82;;;16.60;38.20;;;;;;20869080;28;81839;-70
2021/10/24 19:29:55;;;;;;;14.10;5.43;;;16.40;38.50;;;;;;20863146;28;81618;-70
2021/10/24 19:39:57;;;;;;;12.50;5.25;;;16.30;39.40;;;;;;20864568;27;80786;-70
2021/10/24 19:49:59;;;;;;;22.55;6.40;;;16.10;40.00;;;;;;20863874;28;83173;-70
2021/10/24 20:00:02;;;;;;;21.38;7.05;;;15.90;40.80;;;;;;20860563;27;81260;-71
2021/10/24 20:10:05;;;;;;;13.77;6.97;;;15.70;41.70;;;;;;20865859;28;81180;-69
2021/10/24 20:20:07;;;;;;;15.00;6.57;;;15.60;42.40;;;;;;20876280;27;81268;-71
2021/10/24 20:30:09;;;;;;;10.97;4.67;;;15.40;42.60;;;;;;20879836;27;81323;-71
2021/10/24 20:40:11;;;;;;;9.90;4.57;;;15.30;42.50;;;;;;20881975;27;81635;-69
2021/10/24 20:50:13;;;;;;;7.70;2.90;;;15.10;42.10;;;;;;20880004;27;82308;-70
2021/10/24 21:00:15;;;;;;;9.60;2.90;;;14.90;42.10;;;;;;20880527;27;81913;-70
2021/10/24 21:10:17;;;;;;;7.93;2.45;;;14.70;42.40;;;;;;20884663;28;82168;-70
2021/10/24 21:20:20;;;;;;;5.13;2.30;;;14.50;42.90;;;;;;20891311;28;80894;-71
2021/10/24 21:30:22;;;;;;;7.30;2.30;;;14.40;43.00;;;;;;20890302;27;81471;-70
2021/10/24 21:40:25;;;;;;;8.67;2.10;;;14.20;43.20;;;;;;20891940;27;80920;-71
2021/10/24 21:50:27;;;;;;;8.13;2.20;;;14.00;43.50;;;;;;20891050;27;81068;-72
2021/10/24 22:00:37;;;;;;;6.78;2.10;;;13.80;43.90;;;;;;20847516;28;79964;-71
2021/10/24 22:10:38;;;;;;;7.47;2.35;;;13.80;44.20;;;;;;20863197;27;80838;-71
2021/10/24 22:20:40;;;;;;;9.25;2.00;;;13.50;44.30;;;;;;20805595;28;80601;-71
2021/10/24 22:30:44;;;;;;;6.07;2.17;;;13.40;44.80;;;;;;20806984;28;80616;-70
2021/10/24 22:40:47;;;;;;;5.38;2.40;;;13.30;45.20;;;;;;20815182;27;80761;-71
2021/10/24 22:50:48;;;;;;;6.07;1.98;;;13.30;45.50;;;;;;20804105;28;80054;-70
2021/10/24 23:00:51;;;;;;;7.82;1.88;;;13.10;45.90;;;;;;20801537;28;80499;-72
2021/10/24 23:10:53;;;;;;;5.70;1.90;;;12.90;46.00;;;;;;20801619;28;82016;-71
2021/10/24 23:20:54;;;;;;;7.07;1.85;;;12.70;46.30;;;;;;20800732;28;80875;-72
2021/10/24 23:30:57;;;;;;;4.65;1.88;;;12.40;47.00;;;;;;20800506;28;81328;-73
2021/10/24 23:40:58;;;;;;;7.13;2.13;;;12.30;47.30;;;;;;20797866;28;81466;-70
2021/10/24 23:51:01;;;;;;;5.13;1.90;;;12.20;47.70;;;;;;20803688;28;80598;-72
